CheckWX is a tool to help pilots better visualize weather data.  It is not intended as a substitute for an official pre-flight weather briefing.

03:04:27 UTC

KEGI TAF
Duke Field Airport
Crestview, Florida, USA
TAF KEGI 290200Z 2902/0108 27009KT 9999 SKC QNH3018INS BECMG 2914/2915 30012G20KT 9999 SKC QNH3025INS BECMG 0100/0101 04006KT 9999 SKC QNH2029INS WND 11006KT AFT 0106 TX19/2920Z TN02/2913Z

Feb-29@
02:00 UTC

Feb-29 @ 02:00 UTC

Feb-29@
14:00 UTC

Feb-29 @ 14:00 UTC

TAF KEGI 290200Z 2902/0108 27009KT 9999 SKC QNH3018INS
Wind
  • 270° at 9 KTS
Cloud Levels
  • Clear skies

Feb-29@
14:00 UTC

Feb-29 @ 14:00 UTC

Mar-1@
00:00 UTC

Mar-1 @ 00:00 UTC

BECMG 2914/2915 30012G20KT 9999 SKC QNH3025INS

Becoming

Becoming Conditions expected by Sat, Feb 29, 2020 @ 15:00 UTC

Wind
  • 300° at 12 KTS
  • {Gusting to 20 KTS
Cloud Levels
  • Clear skies

Mar-1@
00:00 UTC

Mar-1 @ 00:00 UTC

Mar-1@
08:00 UTC

Mar-1 @ 08:00 UTC

BECMG 0100/0101 04006KT 9999 SKC QNH2029INS WND 11006KT AFT 0106 TX19/2920Z TN02/2913Z

Becoming

Becoming Conditions expected by Sun, Mar 1, 2020 @ 01:00 UTC

Wind
  • 040° at 6 KTS
Cloud Levels
  • Clear skies